Time;durP1;ratioP1;P1;durP2;ratioP2;P2;SDS_P1;SDS_P2;PMS_P1;PMS_P2;Temp;Humidity;BMP_temperature;BMP_pressure;BME280_temperature;BME280_humidity;BME280_pressure;Samples;Min_cycle;Max_cycle;Signal;HPM_P1;HPM_P2
2023/05/23 00:00:32;;;;;;;22.73;17.75;;;13.00;71.00;;;;;;5085415;28;20041;-73
2023/05/23 00:02:59;;;;;;;23.00;17.58;;;13.00;71.10;;;;;;5091687;28;20029;-72
2023/05/23 00:05:25;;;;;;;22.48;17.52;;;12.90;71.00;;;;;;5091412;28;20031;-71
2023/05/23 00:07:51;;;;;;;22.13;17.27;;;12.90;70.00;;;;;;5096739;28;20022;-72
2023/05/23 00:10:16;;;;;;;22.10;17.10;;;12.80;70.10;;;;;;5070682;28;20039;-72
2023/05/23 00:12:46;;;;;;;23.00;17.40;;;12.80;69.70;;;;;;5095737;28;20104;-72
2023/05/23 00:15:12;;;;;;;20.65;16.23;;;12.80;68.90;;;;;;5092553;28;20317;-72
2023/05/23 00:17:38;;;;;;;21.75;18.25;;;12.80;68.90;;;;;;5078638;28;20028;-72
2023/05/23 00:20:10;;;;;;;27.77;19.95;;;12.80;69.30;;;;;;5072579;28;20119;-72
2023/05/23 00:22:38;;;;;;;23.30;17.13;;;12.80;69.00;;;;;;5087879;28;20325;-72
2023/05/23 00:25:05;;;;;;;24.60;19.83;;;12.70;68.20;;;;;;5087985;28;20099;-72
2023/05/23 00:27:30;;;;;;;23.35;17.95;;;12.80;67.70;;;;;;5094740;28;20026;-72
2023/05/23 00:29:56;;;;;;;22.75;18.27;;;12.90;66.30;;;;;;5096917;28;20095;-72
2023/05/23 00:32:21;;;;;;;23.35;18.48;;;13.00;65.10;;;;;;5093797;28;20048;-72
2023/05/23 00:34:47;;;;;;;22.02;17.73;;;13.10;64.50;;;;;;5069395;28;20039;-72
2023/05/23 00:37:14;;;;;;;21.02;16.98;;;13.30;64.40;;;;;;5091866;28;20516;-72
2023/05/23 00:39:39;;;;;;;20.50;16.40;;;13.40;65.10;;;;;;5084149;28;20507;-72
2023/05/23 00:42:06;;;;;;;21.50;16.80;;;13.40;66.10;;;;;;5096354;28;20028;-72
2023/05/23 00:44:32;;;;;;;21.02;16.25;;;13.50;66.20;;;;;;5096880;28;20316;-72
2023/05/23 00:46:58;;;;;;;21.33;17.40;;;13.70;66.20;;;;;;5092567;28;20016;-72
2023/05/23 00:49:26;;;;;;;22.75;17.90;;;13.80;66.40;;;;;;5093217;28;20056;-72
2023/05/23 00:51:52;;;;;;;24.13;16.58;;;13.90;66.90;;;;;;5094901;28;20482;-72
2023/05/23 00:54:23;;;;;;;21.20;16.90;;;14.00;67.60;;;;;;5094675;28;20039;-72
2023/05/23 00:56:49;;;;;;;18.05;15.10;;;14.10;68.60;;;;;;5084753;28;20309;-72
2023/05/23 00:59:15;;;;;;;21.27;16.05;;;14.20;69.40;;;;;;5089159;28;20044;-72
2023/05/23 01:01:45;;;;;;;19.20;14.18;;;14.20;69.90;;;;;;5107961;28;20027;-72
2023/05/23 01:04:12;;;;;;;17.63;14.32;;;14.30;72.10;;;;;;5089442;28;20047;-72
2023/05/23 01:06:37;;;;;;;17.73;14.15;;;14.30;74.30;;;;;;5086082;28;20027;-72
2023/05/23 01:09:03;;;;;;;16.70;13.63;;;14.40;75.90;;;;;;5084625;28;20036;-72
2023/05/23 01:11:38;;;;;;;16.02;13.25;;;14.50;76.70;;;;;;5090518;28;20107;-72
2023/05/23 01:14:10;;;;;;;18.58;14.02;;;14.60;78.70;;;;;;5082827;28;20114;-71
2023/05/23 01:16:58;;;;;;;16.77;13.18;;;14.60;80.20;;;;;;5083192;28;20024;-72
2023/05/23 01:20:01;;;;;;;17.75;13.80;;;14.70;81.60;;;;;;5088952;28;20312;-72
2023/05/23 01:22:32;;;;;;;16.45;14.02;;;14.70;82.40;;;;;;5092087;28;20021;-72
2023/05/23 01:25:27;;;;;;;18.42;13.45;;;14.80;83.20;;;;;;5091884;28;20020;-72
2023/05/23 01:27:59;;;;;;;;;;;14.90;83.90;;;;;;5091020;28;20031;-72
2023/05/23 01:30:30;;;;;;;20.92;16.05;;;14.90;84.30;;;;;;5089859;28;19912;-72
2023/05/23 01:32:57;;;;;;;22.25;16.67;;;15.00;85.30;;;;;;5085528;28;20036;-72
2023/05/23 01:35:27;;;;;;;25.55;18.58;;;15.00;85.60;;;;;;5088229;28;20440;-72
2023/05/23 01:37:55;;;;;;;24.50;18.33;;;15.10;86.20;;;;;;5083506;28;20052;-72
2023/05/23 01:40:22;;;;;;;24.15;18.67;;;15.20;86.50;;;;;;5089921;28;20025;-72
2023/05/23 01:42:48;;;;;;;22.52;16.30;;;15.30;87.00;;;;;;5093400;28;20031;-72
2023/05/23 01:45:15;;;;;;;22.40;17.73;;;15.30;87.40;;;;;;5094523;28;20024;-72
2023/05/23 01:47:41;;;;;;;37.58;24.83;;;15.30;88.00;;;;;;5091159;28;20067;-72
2023/05/23 01:50:08;;;;;;;71.25;40.00;;;15.20;86.80;;;;;;5087180;28;20024;-72
2023/05/23 01:52:34;;;;;;;68.10;41.40;;;15.20;84.30;;;;;;5099594;28;20081;-72
2023/05/23 01:55:00;;;;;;;94.68;52.03;;;15.30;83.20;;;;;;5091597;28;20410;-72
2023/05/23 01:57:29;;;;;;;89.38;50.22;;;15.30;82.00;;;;;;5093482;28;20100;-72
2023/05/23 01:59:55;;;;;;;83.28;48.92;;;15.20;80.70;;;;;;5092829;28;20028;-71
2023/05/23 02:02:21;;;;;;;83.80;47.72;;;15.20;80.00;;;;;;5074673;28;20161;-72
2023/05/23 02:04:48;;;;;;;84.88;47.70;;;15.30;80.90;;;;;;5085793;28;20036;-72
2023/05/23 02:07:14;;;;;;;78.53;47.05;;;15.30;81.00;;;;;;5090340;28;20051;-72
2023/05/23 02:09:39;;;;;;;62.42;40.50;;;15.30;81.70;;;;;;5090651;28;20024;-72
2023/05/23 02:12:05;;;;;;;79.35;47.20;;;15.30;80.90;;;;;;5086664;28;20028;-72
2023/05/23 02:14:31;;;;;;;72.07;43.90;;;15.30;82.10;;;;;;5092208;28;20036;-72
2023/05/23 02:16:56;;;;;;;67.72;41.30;;;15.30;81.90;;;;;;5069091;28;20047;-72
2023/05/23 02:19:22;;;;;;;70.15;45.00;;;15.30;81.60;;;;;;5086130;28;20302;-72
2023/05/23 02:21:50;;;;;;;88.60;49.28;;;15.40;81.50;;;;;;5094055;28;20031;-72
2023/05/23 02:24:16;;;;;;;96.53;55.83;;;15.50;81.70;;;;;;5094069;28;20312;-72
2023/05/23 02:26:41;;;;;;;87.57;51.38;;;15.50;82.40;;;;;;5083742;28;20028;-72
2023/05/23 02:29:07;;;;;;;96.43;55.65;;;15.50;81.60;;;;;;5083555;28;20290;-72
2023/05/23 02:31:36;;;;;;;84.70;51.30;;;15.50;81.50;;;;;;5093046;28;20032;-72
2023/05/23 02:34:01;;;;;;;99.43;57.20;;;15.50;81.30;;;;;;5093758;28;20062;-72
2023/05/23 02:36:27;;;;;;;111.13;63.33;;;15.60;81.60;;;;;;5093418;28;20064;-72
2023/05/23 02:38:52;;;;;;;116.35;63.95;;;15.60;82.40;;;;;;5092412;28;20103;-72
2023/05/23 02:41:18;;;;;;;107.80;60.03;;;15.50;81.80;;;;;;5092235;28;20420;-72
2023/05/23 02:43:49;;;;;;;95.50;55.40;;;15.50;81.30;;;;;;5095039;28;20333;-72
2023/05/23 02:46:15;;;;;;;110.82;61.75;;;15.40;80.40;;;;;;5092938;28;20027;-71
2023/05/23 02:48:44;;;;;;;102.57;58.45;;;15.40;81.00;;;;;;5092330;28;20025;-72
2023/05/23 02:51:12;;;;;;;95.18;53.30;;;15.40;80.80;;;;;;5094770;28;20067;-71
2023/05/23 02:53:38;;;;;;;100.55;57.13;;;15.40;80.80;;;;;;5092873;28;20417;-71
2023/05/23 02:56:03;;;;;;;114.97;59.60;;;15.50;81.10;;;;;;5107112;28;20024;-73
2023/05/23 02:58:29;;;;;;;97.82;56.22;;;15.40;80.90;;;;;;5098081;28;20032;-73
2023/05/23 03:00:54;;;;;;;113.43;62.05;;;15.40;80.20;;;;;;5098948;28;20115;-72
2023/05/23 03:03:20;;;;;;;108.38;59.30;;;15.40;80.90;;;;;;5095555;28;20109;-71
2023/05/23 03:05:46;;;;;;;106.38;59.25;;;15.30;80.10;;;;;;5090269;28;20448;-72
2023/05/23 03:08:11;;;;;;;111.03;60.63;;;15.30;79.10;;;;;;5078987;28;20040;-72
2023/05/23 03:10:40;;;;;;;107.18;57.42;;;15.40;80.20;;;;;;5085469;28;20028;-72
2023/05/23 03:13:05;;;;;;;99.05;57.83;;;15.30;79.90;;;;;;5095099;28;20036;-72
2023/05/23 03:15:31;;;;;;;91.32;53.42;;;15.30;79.90;;;;;;5088681;28;20162;-72
2023/05/23 03:17:56;;;;;;;104.03;58.35;;;15.40;79.60;;;;;;5098466;28;20075;-72
2023/05/23 03:20:22;;;;;;;101.35;57.10;;;15.40;79.70;;;;;;5097398;28;20029;-72
2023/05/23 03:22:47;;;;;;;104.78;59.13;;;15.40;79.90;;;;;;5095155;28;20027;-72
2023/05/23 03:25:15;;;;;;;91.78;53.70;;;15.30;79.90;;;;;;5091847;28;20024;-72
2023/05/23 03:27:41;;;;;;;117.78;63.55;;;15.30;79.20;;;;;;5095747;28;20028;-72
2023/05/23 03:30:07;;;;;;;103.53;56.15;;;15.30;79.60;;;;;;5094075;28;20078;-72
2023/05/23 03:32:33;;;;;;;104.80;58.47;;;15.30;79.00;;;;;;5095276;28;20071;-72
2023/05/23 03:34:59;;;;;;;114.22;61.47;;;15.30;79.30;;;;;;5094024;28;20052;-72
2023/05/23 03:37:24;;;;;;;91.38;53.53;;;15.20;79.20;;;;;;5085657;28;20040;-72
2023/05/23 03:39:50;;;;;;;108.13;58.88;;;15.20;78.30;;;;;;5096156;28;20028;-72
2023/05/23 03:42:17;;;;;;;108.88;61.10;;;15.20;78.30;;;;;;5096665;28;20062;-71
2023/05/23 03:44:42;;;;;;;111.65;61.25;;;15.10;78.00;;;;;;5098046;28;20023;-72
2023/05/23 03:47:08;;;;;;;110.70;60.78;;;15.20;77.60;;;;;;5092365;28;20028;-72
2023/05/23 03:49:34;;;;;;;89.95;51.95;;;15.10;77.60;;;;;;5074567;28;20047;-72
2023/05/23 03:51:59;;;;;;;94.68;55.33;;;15.20;76.90;;;;;;5087553;28;20034;-72
2023/05/23 03:54:25;;;;;;;103.72;59.55;;;15.20;77.60;;;;;;5095752;28;20059;-72
2023/05/23 03:56:50;;;;;;;112.05;60.50;;;15.30;78.10;;;;;;5091854;28;20032;-72
2023/05/23 03:59:16;;;;;;;93.28;55.83;;;15.20;78.20;;;;;;5096743;28;20050;-72
2023/05/23 04:01:42;;;;;;;87.50;53.53;;;15.20;77.60;;;;;;5089697;28;20070;-72
2023/05/23 04:04:08;;;;;;;85.53;50.90;;;15.20;78.10;;;;;;5084823;28;20115;-72
2023/05/23 04:06:33;;;;;;;78.63;48.63;;;15.20;79.30;;;;;;5089940;28;20050;-71
2023/05/23 04:09:00;;;;;;;85.63;50.72;;;15.20;78.50;;;;;;5094159;28;20024;-72
2023/05/23 04:11:25;;;;;;;79.78;49.42;;;15.20;79.70;;;;;;5094311;28;20029;-71
2023/05/23 04:13:52;;;;;;;83.22;49.20;;;15.20;79.60;;;;;;5094121;28;20021;-71
2023/05/23 04:16:17;;;;;;;75.70;43.80;;;15.20;79.30;;;;;;5091874;28;20307;-72
2023/05/23 04:18:45;;;;;;;72.68;45.25;;;15.10;78.70;;;;;;5096654;28;20028;-71
2023/05/23 04:21:11;;;;;;;92.00;53.58;;;15.10;77.80;;;;;;5096984;28;20029;-71
2023/05/23 04:23:37;;;;;;;81.35;49.45;;;15.10;78.40;;;;;;5061838;28;20406;-71
2023/05/23 04:26:04;;;;;;;101.65;55.22;;;15.00;77.10;;;;;;5076006;28;20024;-72
2023/05/23 04:28:30;;;;;;;95.30;54.42;;;15.00;77.00;;;;;;5092209;28;20388;-72
2023/05/23 04:30:57;;;;;;;99.10;54.90;;;15.00;75.90;;;;;;5089666;28;20424;-71
2023/05/23 04:33:23;;;;;;;88.38;51.88;;;15.00;76.00;;;;;;5090074;28;20028;-72
2023/05/23 04:35:50;;;;;;;81.20;48.40;;;15.00;76.10;;;;;;5097560;28;20050;-72
2023/05/23 04:38:16;;;;;;;78.55;48.88;;;15.00;75.50;;;;;;5090804;28;20111;-72
2023/05/23 04:40:41;;;;;;;80.85;48.40;;;15.10;75.30;;;;;;5095636;28;20423;-72
2023/05/23 04:43:08;;;;;;;81.93;50.33;;;15.20;76.10;;;;;;5097336;28;20027;-72
2023/05/23 04:45:35;;;;;;;79.90;48.75;;;15.30;78.50;;;;;;5097692;28;20047;-72
2023/05/23 04:48:01;;;;;;;71.00;44.72;;;15.20;78.50;;;;;;5090419;28;20024;-72
2023/05/23 04:50:30;;;;;;;87.00;50.55;;;15.30;79.30;;;;;;5090060;28;20301;-72
2023/05/23 04:52:56;;;;;;;78.18;47.88;;;15.20;80.50;;;;;;5082282;28;20050;-72
2023/05/23 04:55:21;;;;;;;98.07;54.95;;;15.20;80.30;;;;;;5077000;28;20464;-72
2023/05/23 04:57:47;;;;;;;78.32;48.60;;;15.00;79.90;;;;;;5095491;28;20417;-72
2023/05/23 05:00:13;;;;;;;82.95;49.70;;;15.00;78.00;;;;;;5088883;28;20098;-72
2023/05/23 05:02:39;;;;;;;77.93;48.15;;;14.90;77.70;;;;;;5088231;28;20150;-72
2023/05/23 05:05:06;;;;;;;87.53;52.10;;;15.00;76.50;;;;;;5078835;28;20320;-72
2023/05/23 05:07:38;;;;;;;87.18;52.22;;;15.10;77.30;;;;;;5076847;28;20290;-73
2023/05/23 05:10:04;;;;;;;85.00;51.35;;;15.10;78.20;;;;;;5075913;28;20020;-72
2023/05/23 05:12:29;;;;;;;88.45;52.45;;;15.10;78.90;;;;;;5077074;28;20640;-72
2023/05/23 05:14:55;;;;;;;96.93;55.65;;;15.10;78.40;;;;;;5059433;28;20555;-73
2023/05/23 05:17:21;;;;;;;106.10;60.58;;;15.00;78.30;;;;;;5080192;28;20028;-72
2023/05/23 05:19:46;;;;;;;116.95;65.18;;;15.00;77.20;;;;;;5084363;28;20025;-71
2023/05/23 05:22:12;;;;;;;120.68;65.15;;;15.00;76.60;;;;;;5078169;28;20024;-71
2023/05/23 05:24:39;;;;;;;109.03;60.40;;;15.00;75.50;;;;;;5074920;28;20028;-71
2023/05/23 05:27:05;;;;;;;107.85;62.25;;;15.00;74.60;;;;;;5078553;28;20040;-72
2023/05/23 05:29:35;;;;;;;117.95;66.13;;;15.10;75.10;;;;;;5092508;28;20020;-71
2023/05/23 05:32:00;;;;;;;107.57;60.47;;;15.10;76.30;;;;;;5093391;28;20031;-71
2023/05/23 05:34:26;;;;;;;115.82;62.80;;;15.10;75.60;;;;;;5094795;28;20032;-71
2023/05/23 05:36:54;;;;;;;108.22;62.90;;;15.10;75.90;;;;;;5091123;28;20043;-72
2023/05/23 05:39:22;;;;;;;110.70;62.42;;;15.10;76.40;;;;;;5080406;28;20024;-71
2023/05/23 05:41:47;;;;;;;114.95;64.25;;;15.10;76.30;;;;;;5068468;28;20031;-71
2023/05/23 05:44:13;;;;;;;126.22;68.68;;;15.10;76.30;;;;;;5069540;28;20032;-71
2023/05/23 05:46:39;;;;;;;128.90;68.82;;;15.10;76.70;;;;;;5091231;28;20024;-71
2023/05/23 05:49:04;;;;;;;105.70;60.45;;;15.10;77.20;;;;;;5094668;28;20420;-71
2023/05/23 05:51:30;;;;;;;140.77;74.47;;;15.10;77.10;;;;;;5084481;28;20035;-72
2023/05/23 05:53:56;;;;;;;148.15;76.55;;;15.00;77.70;;;;;;5087149;28;20314;-72
2023/05/23 05:56:21;;;;;;;152.52;78.22;;;15.00;76.80;;;;;;5085351;28;20032;-72
2023/05/23 05:58:47;;;;;;;121.00;68.50;;;14.90;75.70;;;;;;5086963;28;20024;-72
2023/05/23 06:01:16;;;;;;;126.43;69.70;;;14.90;74.60;;;;;;5092143;28;20027;-73
2023/05/23 06:03:44;;;;;;;140.15;74.50;;;14.80;73.60;;;;;;5092989;28;20034;-71
2023/05/23 06:06:13;;;;;;;127.95;71.35;;;14.80;74.20;;;;;;5081426;28;20048;-72
2023/05/23 06:08:38;;;;;;;128.35;71.88;;;14.90;72.90;;;;;;5082995;28;20048;-71
2023/05/23 06:11:04;;;;;;;146.98;76.07;;;14.90;73.80;;;;;;5079423;28;20056;-71
2023/05/23 06:13:33;;;;;;;153.52;77.93;;;14.90;73.80;;;;;;5090191;28;20031;-72
2023/05/23 06:15:58;;;;;;;115.10;67.15;;;14.80;73.90;;;;;;5086559;28;20036;-72
2023/05/23 06:18:24;;;;;;;130.00;74.03;;;14.80;72.00;;;;;;5089008;28;20422;-72
2023/05/23 06:20:49;;;;;;;139.95;76.90;;;14.70;70.30;;;;;;5087477;28;20028;-72
2023/05/23 06:23:15;;;;;;;137.32;76.18;;;14.70;70.40;;;;;;5093097;28;20025;-71
2023/05/23 06:25:41;;;;;;;138.25;74.00;;;14.70;70.50;;;;;;5083139;28;20114;-72
2023/05/23 06:28:06;;;;;;;129.73;70.75;;;14.70;70.30;;;;;;5087391;28;20025;-71
2023/05/23 06:30:34;;;;;;;115.57;67.00;;;14.70;69.80;;;;;;5091796;28;20291;-71
2023/05/23 06:33:00;;;;;;;121.97;68.93;;;14.80;69.50;;;;;;5078354;28;20027;-71
2023/05/23 06:35:26;;;;;;;124.97;71.45;;;14.90;70.80;;;;;;5070554;28;20031;-72
2023/05/23 06:37:54;;;;;;;135.10;75.65;;;14.90;72.20;;;;;;5085207;28;20032;-72
2023/05/23 06:40:19;;;;;;;121.07;70.93;;;14.80;72.00;;;;;;5080667;28;20459;-71
2023/05/23 06:42:48;;;;;;;122.70;71.43;;;14.80;71.60;;;;;;5076819;28;20029;-71
2023/05/23 06:45:13;;;;;;;105.78;66.18;;;14.80;72.70;;;;;;5095599;28;20074;-72
2023/05/23 06:47:42;;;;;;;137.10;75.72;;;14.80;71.50;;;;;;5095284;28;20051;-71
2023/05/23 06:50:08;;;;;;;105.95;66.55;;;14.80;73.20;;;;;;5078929;28;20024;-71
2023/05/23 06:52:34;;;;;;;127.30;75.32;;;14.90;71.40;;;;;;5093375;28;20028;-72
2023/05/23 06:54:59;;;;;;;101.50;64.63;;;14.80;72.50;;;;;;5094753;28;20089;-71
2023/05/23 06:57:25;;;;;;;108.72;71.80;;;14.90;72.20;;;;;;5095860;28;20097;-72
2023/05/23 06:59:50;;;;;;;111.68;73.68;;;15.00;73.30;;;;;;5095862;28;20035;-71
2023/05/23 07:02:16;;;;;;;114.30;73.00;;;15.00;75.90;;;;;;5095910;28;20107;-71
2023/05/23 07:04:42;;;;;;;122.25;72.10;;;15.00;76.10;;;;;;5087840;28;20350;-71
2023/05/23 07:07:07;;;;;;;130.23;79.03;;;15.00;75.90;;;;;;5095763;28;20104;-71
2023/05/23 07:09:33;;;;;;;102.03;65.55;;;15.00;76.90;;;;;;5094432;28;20024;-71
2023/05/23 07:11:58;;;;;;;135.27;81.03;;;15.00;74.80;;;;;;5095843;28;20021;-72
2023/05/23 07:14:24;;;;;;;115.15;72.55;;;15.10;77.70;;;;;;5095568;28;20028;-71
2023/05/23 07:16:50;;;;;;;119.72;77.22;;;15.20;77.50;;;;;;5095805;28;20028;-71
2023/05/23 07:19:15;;;;;;;117.43;75.63;;;15.10;78.70;;;;;;5084549;28;20024;-71
2023/05/23 07:21:41;;;;;;;100.00;67.47;;;15.10;78.20;;;;;;5075314;28;20028;-71
2023/05/23 07:24:06;;;;;;;109.13;69.93;;;15.30;78.90;;;;;;5074261;28;20024;-71
2023/05/23 07:26:32;;;;;;;112.38;72.38;;;15.50;81.50;;;;;;5075215;28;20074;-71
2023/05/23 07:28:57;;;;;;;86.38;58.95;;;15.40;85.50;;;;;;5075262;28;20031;-71
2023/05/23 07:31:23;;;;;;;105.05;70.85;;;15.40;83.80;;;;;;5075398;28;20095;-71
2023/05/23 07:33:48;;;;;;;106.50;71.93;;;15.50;85.90;;;;;;5083260;28;20048;-72
2023/05/23 07:36:15;;;;;;;103.05;68.57;;;15.40;85.80;;;;;;5085395;28;20055;-72
2023/05/23 07:38:40;;;;;;;109.40;71.05;;;15.30;84.50;;;;;;5081040;28;20325;-71
2023/05/23 07:41:06;;;;;;;101.47;68.82;;;15.20;83.10;;;;;;5077339;28;20024;-71
2023/05/23 07:43:31;;;;;;;116.05;76.22;;;15.20;81.90;;;;;;5092705;28;20016;-71
2023/05/23 07:45:57;;;;;;;93.85;65.55;;;15.30;82.50;;;;;;5099031;28;20020;-71
2023/05/23 07:48:23;;;;;;;98.65;68.72;;;15.30;80.90;;;;;;5099119;28;20028;-72
2023/05/23 07:50:48;;;;;;;114.78;73.50;;;15.30;82.70;;;;;;5098871;28;20059;-71
2023/05/23 07:53:14;;;;;;;92.10;66.97;;;15.20;82.90;;;;;;5098994;28;20020;-72
2023/05/23 07:55:40;;;;;;;99.95;65.13;;;15.20;81.80;;;;;;5097638;28;20035;-72
2023/05/23 07:58:06;;;;;;;95.47;67.00;;;15.20;82.30;;;;;;5097845;28;20032;-71
2023/05/23 08:00:31;;;;;;;110.32;72.90;;;15.20;82.40;;;;;;5098753;28;20024;-72
2023/05/23 08:02:57;;;;;;;104.85;70.65;;;15.10;81.70;;;;;;5098733;28;20141;-71
2023/05/23 08:05:23;;;;;;;103.00;69.97;;;15.10;80.80;;;;;;5098845;28;20286;-71
2023/05/23 08:07:48;;;;;;;96.63;67.47;;;15.10;79.60;;;;;;5097887;28;20020;-71
2023/05/23 08:10:14;;;;;;;110.10;74.28;;;15.20;80.20;;;;;;5095208;28;20107;-71
2023/05/23 08:12:39;;;;;;;104.53;72.15;;;15.20;81.10;;;;;;5098516;28;20325;-71
2023/05/23 08:15:05;;;;;;;98.72;68.28;;;15.20;80.30;;;;;;5098364;28;20107;-71
2023/05/23 08:17:31;;;;;;;97.75;69.13;;;15.30;80.40;;;;;;5098641;28;20325;-71
2023/05/23 08:19:57;;;;;;;95.70;64.95;;;15.20;81.20;;;;;;5098341;28;20077;-72
2023/05/23 08:22:22;;;;;;;101.55;70.28;;;15.20;80.90;;;;;;5098437;28;20024;-71
2023/05/23 08:24:48;;;;;;;94.18;62.63;;;15.20;81.90;;;;;;5078290;28;20499;-71
2023/05/23 08:27:13;;;;;;;90.57;63.28;;;15.20;82.10;;;;;;5098020;28;20055;-71
2023/05/23 08:29:40;;;;;;;95.60;66.65;;;15.20;82.00;;;;;;5084188;28;20040;-72
2023/05/23 08:32:05;;;;;;;100.65;73.03;;;15.10;81.60;;;;;;5083195;28;20028;-72
2023/05/23 08:34:31;;;;;;;96.28;67.55;;;15.00;81.60;;;;;;5077946;28;20024;-71
2023/05/23 08:36:57;;;;;;;112.28;76.10;;;14.90;79.30;;;;;;5077719;28;20097;-71
2023/05/23 08:39:22;;;;;;;98.63;68.10;;;14.80;78.60;;;;;;5076541;28;20119;-72
2023/05/23 08:41:48;;;;;;;119.28;77.78;;;14.70;76.10;;;;;;5077812;28;20027;-71
2023/05/23 08:44:14;;;;;;;109.30;75.53;;;14.70;75.60;;;;;;5084180;28;20063;-73
2023/05/23 08:46:48;;;;;;;96.53;68.15;;;14.60;73.20;;;;;;5098000;28;20416;-73
2023/05/23 08:49:16;;;;;;;;;;;14.50;70.80;;;;;;5089725;28;20025;-72
2023/05/23 08:51:42;;;;;;;106.75;71.80;;;14.50;70.90;;;;;;5077268;28;20214;-72
2023/05/23 08:54:11;;;;;;;118.07;77.35;;;14.40;70.80;;;;;;5076372;28;20043;-71
2023/05/23 08:56:38;;;;;;;90.65;66.55;;;14.40;69.20;;;;;;5077371;28;20029;-71
2023/05/23 08:59:05;;;;;;;97.75;69.45;;;14.30;71.10;;;;;;5084330;28;20039;-72
2023/05/23 09:01:32;;;;;;;113.60;74.95;;;14.20;72.50;;;;;;5096732;28;20028;-72
2023/05/23 09:04:03;;;;;;;101.05;70.97;;;14.10;72.10;;;;;;5090291;28;20012;-72
2023/05/23 09:06:29;;;;;;;109.50;73.18;;;14.10;70.10;;;;;;5077290;28;20333;-72
2023/05/23 09:08:55;;;;;;;97.35;69.80;;;14.10;71.50;;;;;;5075926;28;20028;-72
2023/05/23 09:11:23;;;;;;;109.55;74.30;;;14.10;71.20;;;;;;5077016;28;20104;-71
2023/05/23 09:13:48;;;;;;;112.20;75.68;;;14.00;71.10;;;;;;5077060;28;20021;-72
2023/05/23 09:16:16;;;;;;;110.03;73.75;;;14.00;70.00;;;;;;5077099;28;20307;-72
2023/05/23 09:18:43;;;;;;;104.80;72.03;;;13.90;70.50;;;;;;5077086;28;20020;-71
2023/05/23 09:21:11;;;;;;;95.20;69.13;;;14.10;68.60;;;;;;5077478;28;20043;-71
2023/05/23 09:23:40;;;;;;;93.78;67.95;;;14.00;71.00;;;;;;5077759;28;20074;-72
2023/05/23 09:26:08;;;;;;;92.88;68.85;;;14.20;69.80;;;;;;5086951;28;20090;-71
2023/05/23 09:28:35;;;;;;;86.18;63.83;;;14.20;72.60;;;;;;5072486;28;20084;-72
2023/05/23 09:31:02;;;;;;;83.72;62.50;;;14.10;74.00;;;;;;5095651;28;20032;-72
2023/05/23 09:33:34;;;;;;;92.05;68.07;;;14.20;73.90;;;;;;5072472;28;20409;-71
2023/05/23 09:36:00;;;;;;;102.28;69.95;;;14.30;74.10;;;;;;5096778;28;20132;-71
2023/05/23 09:38:27;;;;;;;78.88;58.85;;;14.20;76.70;;;;;;5096792;28;20058;-71
2023/05/23 09:40:55;;;;;;;77.05;58.75;;;14.10;78.00;;;;;;5095738;28;20031;-71
2023/05/23 09:43:21;;;;;;;81.18;58.90;;;14.00;77.90;;;;;;5096714;28;20042;-71
2023/05/23 09:45:46;;;;;;;76.70;57.53;;;14.10;78.90;;;;;;5096982;28;20035;-72
2023/05/23 09:48:12;;;;;;;66.95;52.40;;;14.00;79.70;;;;;;5093361;28;20295;-71
2023/05/23 09:50:38;;;;;;;69.18;53.40;;;14.10;79.50;;;;;;5076367;28;20056;-71
2023/05/23 09:53:04;;;;;;;61.60;49.22;;;14.10;82.20;;;;;;5082671;28;20036;-71
2023/05/23 09:55:29;;;;;;;64.53;50.25;;;14.00;81.80;;;;;;5095426;28;20032;-72
2023/05/23 09:57:57;;;;;;;65.00;50.10;;;14.20;79.70;;;;;;5096784;28;20031;-72
2023/05/23 10:00:27;;;;;;;64.07;49.35;;;14.20;85.00;;;;;;5078384;28;20077;-71
2023/05/23 10:03:13;;;;;;;62.10;47.75;;;14.20;87.40;;;;;;5096166;28;20444;-72
2023/05/23 10:05:45;;;;;;;58.17;46.20;;;14.20;87.40;;;;;;5095764;28;20145;-71
2023/05/23 10:08:43;;;;;;;54.40;43.80;;;14.20;89.10;;;;;;5095521;28;20024;-72
2023/05/23 10:11:34;;;;;;;53.42;42.60;;;14.30;88.80;;;;;;5077984;28;20074;-71
2023/05/23 10:14:08;;;;;;;54.15;45.05;;;14.40;91.90;;;;;;5089676;28;20029;-72
2023/05/23 10:17:01;;;;;;;49.53;39.88;;;14.40;92.00;;;;;;5089001;28;20032;-71
2023/05/23 10:19:42;;;;;;;49.20;39.20;;;14.60;90.80;;;;;;5096217;28;20030;-72
2023/05/23 10:22:09;;;;;;;43.63;36.58;;;14.90;93.90;;;;;;5096082;28;20016;-72
2023/05/23 10:24:36;;;;;;;45.03;35.92;;;15.00;95.90;;;;;;5094886;28;20020;-72
2023/05/23 10:27:03;;;;;;;43.63;36.58;;;15.20;94.70;;;;;;5091006;28;20021;-72
2023/05/23 10:29:32;;;;;;;42.63;35.45;;;15.30;96.40;;;;;;5087411;28;20063;-71
2023/05/23 10:31:58;;;;;;;39.75;33.88;;;15.10;96.60;;;;;;5095226;28;20020;-72
2023/05/23 10:34:37;;;;;;;39.90;31.88;;;15.00;97.20;;;;;;5096141;28;20044;-71
2023/05/23 10:37:05;;;;;;;43.45;36.88;;;15.00;97.30;;;;;;5095209;28;20043;-72
2023/05/23 10:39:33;;;;;;;40.83;32.92;;;15.10;97.50;;;;;;5094743;28;20024;-72
2023/05/23 10:42:10;;;;;;;39.45;31.92;;;15.30;97.90;;;;;;5084593;28;20070;-72
2023/05/23 10:44:36;;;;;;;36.30;29.92;;;15.50;98.00;;;;;;5075522;28;20510;-71
2023/05/23 10:47:03;;;;;;;37.00;29.92;;;15.60;98.00;;;;;;5075744;28;20095;-71
2023/05/23 10:49:45;;;;;;;39.10;33.88;;;15.60;98.00;;;;;;5075719;28;20047;-71
2023/05/23 10:52:13;;;;;;;32.60;27.17;;;15.90;98.00;;;;;;5077672;28;20413;-71
2023/05/23 10:55:11;;;;;;;36.15;28.98;;;16.60;98.00;;;;;;5094739;28;20066;-71
2023/05/23 10:57:36;;;;;;;34.10;28.83;;;16.90;98.00;;;;;;5095618;28;20103;-72
2023/05/23 11:00:03;;;;;;;30.80;26.25;;;17.20;96.90;;;;;;5079120;28;20112;-71
2023/05/23 11:02:30;;;;;;;32.10;27.13;;;17.60;96.80;;;;;;5090033;28;20020;-72
2023/05/23 11:05:14;;;;;;;30.17;26.05;;;17.80;95.80;;;;;;5095253;28;20050;-71
2023/05/23 11:07:40;;;;;;;35.92;29.60;;;17.80;95.90;;;;;;5095914;28;20107;-71
2023/05/23 11:10:10;;;;;;;32.97;27.15;;;17.50;95.50;;;;;;5082756;28;20385;-71
2023/05/23 11:12:43;;;;;;;29.08;24.60;;;17.50;95.90;;;;;;5076476;28;20044;-71
2023/05/23 11:15:19;;;;;;;29.60;25.13;;;17.80;95.80;;;;;;5092318;28;20025;-71
2023/05/23 11:17:55;;;;;;;29.75;25.90;;;18.30;95.20;;;;;;5079232;28;20059;-71
2023/05/23 11:20:26;;;;;;;28.52;23.95;;;18.50;94.00;;;;;;5087911;28;20028;-71
2023/05/23 11:23:00;;;;;;;30.70;27.02;;;18.40;94.60;;;;;;5079148;28;20326;-72
2023/05/23 11:25:47;;;;;;;29.13;25.98;;;18.70;93.10;;;;;;5077756;28;20017;-71
2023/05/23 11:28:13;;;;;;;30.65;25.92;;;18.50;92.90;;;;;;5098471;28;20024;-71
2023/05/23 11:30:39;;;;;;;29.73;24.38;;;18.60;93.30;;;;;;5099301;28;20475;-72
2023/05/23 11:33:12;;;;;;;27.27;22.90;;;18.60;92.80;;;;;;5098506;28;20035;-71
2023/05/23 11:35:45;;;;;;;29.13;23.67;;;18.90;92.00;;;;;;5091743;28;20039;-71
2023/05/23 11:38:11;;;;;;;24.85;20.33;;;18.90;91.30;;;;;;5080671;28;20364;-71
2023/05/23 11:40:38;;;;;;;25.83;21.85;;;19.10;90.70;;;;;;5077656;28;20028;-73
2023/05/23 11:43:06;;;;;;;26.15;21.42;;;19.50;89.50;;;;;;5078904;28;20369;-72
2023/05/23 11:45:33;;;;;;;27.33;22.33;;;19.70;89.10;;;;;;5078668;28;20024;-72
2023/05/23 11:48:05;;;;;;;22.25;19.17;;;19.50;89.40;;;;;;5078746;28;20028;-73
2023/05/23 11:50:30;;;;;;;23.95;19.13;;;19.30;91.20;;;;;;5081197;28;20021;-72
2023/05/23 11:52:59;;;;;;;25.05;21.63;;;19.30;91.20;;;;;;5085178;28;20104;-72
2023/05/23 11:55:25;;;;;;;25.02;21.95;;;19.20;90.80;;;;;;5097837;28;20039;-71
2023/05/23 11:57:50;;;;;;;23.60;20.60;;;19.10;90.50;;;;;;5098787;28;20020;-71
2023/05/23 12:00:17;;;;;;;24.73;21.08;;;19.20;91.50;;;;;;5098602;28;20115;-72
2023/05/23 12:02:46;;;;;;;25.60;21.75;;;19.50;89.20;;;;;;5098822;28;20096;-72
2023/05/23 12:05:13;;;;;;;24.58;21.33;;;19.70;89.70;;;;;;5089583;28;20029;-72
2023/05/23 12:07:46;;;;;;;24.55;19.92;;;19.60;89.30;;;;;;5086537;28;20449;-72
2023/05/23 12:10:13;;;;;;;22.77;18.25;;;19.00;90.40;;;;;;5078514;28;20025;-72
2023/05/23 12:12:41;;;;;;;24.80;19.52;;;19.10;90.60;;;;;;5083025;28;20357;-71
2023/05/23 12:15:11;;;;;;;22.98;18.73;;;19.40;89.40;;;;;;5097185;28;20023;-72
2023/05/23 12:17:38;;;;;;;20.60;16.25;;;19.90;88.90;;;;;;5092615;28;20317;-72
2023/05/23 12:20:07;;;;;;;21.90;19.17;;;20.20;86.60;;;;;;5077910;28;20287;-72
2023/05/23 12:22:32;;;;;;;20.38;16.25;;;20.20;85.80;;;;;;5085549;28;20024;-72
2023/05/23 12:24:58;;;;;;;23.83;18.50;;;19.90;87.60;;;;;;5096660;28;20020;-72